Time;durP1;ratioP1;P1;durP2;ratioP2;P2;SDS_P1;SDS_P2;PMS_P1;PMS_P2;Temp;Humidity;BMP_temperature;BMP_pressure;BME280_temperature;BME280_humidity;BME280_pressure;Samples;Min_cycle;Max_cycle;Signal;HPM_P1;HPM_P2
2021/03/17 00:03:08;;;;;;;16.85;14.80;;;5.70;99.90;;;;;;10328695;28;20058;-74
2021/03/17 00:08:09;;;;;;;21.20;16.73;;;5.70;99.90;;;;;;10328340;28;20046;-73
2021/03/17 00:13:11;;;;;;;27.02;20.27;;;5.80;99.90;;;;;;10327544;28;20050;-74
2021/03/17 00:18:14;;;;;;;24.50;19.20;;;5.70;99.90;;;;;;10327811;28;20525;-74
2021/03/17 00:23:18;;;;;;;25.60;19.75;;;5.70;99.90;;;;;;10328545;28;20068;-74
2021/03/17 00:28:20;;;;;;;26.08;19.73;;;5.70;99.90;;;;;;10328076;28;20047;-74
2021/03/17 00:33:21;;;;;;;27.73;21.75;;;5.90;99.90;;;;;;10326824;28;20054;-74
2021/03/17 00:38:22;;;;;;;31.38;21.10;;;5.90;99.90;;;;;;10327553;28;20085;-74
2021/03/17 00:43:24;;;;;;;23.30;17.95;;;5.90;99.90;;;;;;10327273;28;20091;-74
2021/03/17 00:48:25;;;;;;;22.63;18.27;;;5.90;99.90;;;;;;10327157;28;20051;-74
2021/03/17 00:53:27;;;;;;;26.10;19.45;;;6.00;99.90;;;;;;10327286;28;20428;-74
2021/03/17 00:58:29;;;;;;;28.63;20.45;;;6.00;99.90;;;;;;10326041;28;20137;-74
2021/03/17 01:03:30;;;;;;;27.05;19.33;;;6.00;99.90;;;;;;10326254;28;20557;-74
2021/03/17 01:08:33;;;;;;;29.15;20.00;;;5.80;99.90;;;;;;10326054;28;20459;-74
2021/03/17 01:13:34;;;;;;;28.52;19.80;;;5.80;99.90;;;;;;10325717;28;20064;-74
2021/03/17 01:18:36;;;;;;;30.40;20.58;;;5.70;99.90;;;;;;10326074;28;20050;-74
2021/03/17 01:23:38;;;;;;;37.58;25.70;;;5.70;99.90;;;;;;10324406;28;20058;-73
2021/03/17 01:28:39;;;;;;;41.72;26.42;;;5.70;99.90;;;;;;10325898;28;20057;-73
2021/03/17 01:33:41;;;;;;;36.45;24.25;;;5.70;99.90;;;;;;10325331;28;20050;-73
2021/03/17 01:38:43;;;;;;;37.08;25.45;;;5.60;99.90;;;;;;10323799;28;20054;-74
2021/03/17 01:43:44;;;;;;;35.55;23.95;;;5.60;99.90;;;;;;10324425;28;20589;-74
2021/03/17 01:48:46;;;;;;;38.10;26.38;;;5.60;99.90;;;;;;10324655;28;20054;-74
2021/03/17 01:53:48;;;;;;;40.08;25.08;;;5.60;99.90;;;;;;10324401;28;20081;-74
2021/03/17 01:58:50;;;;;;;37.20;22.90;;;5.70;99.90;;;;;;10324872;28;20051;-73
2021/03/17 02:03:51;;;;;;;35.67;23.52;;;5.70;99.90;;;;;;10323864;28;20112;-74
2021/03/17 02:08:53;;;;;;;35.72;23.90;;;5.70;99.90;;;;;;10324261;28;20047;-73
2021/03/17 02:14:05;;;;;;;34.13;23.45;;;5.70;99.90;;;;;;10323537;28;20453;-74
2021/03/17 02:19:13;;;;;;;31.35;22.85;;;5.70;99.90;;;;;;10322957;28;20050;-74
2021/03/17 02:24:23;;;;;;;32.85;23.17;;;5.70;99.90;;;;;;10322568;28;20062;-74
2021/03/17 02:29:31;;;;;;;33.07;21.90;;;5.60;99.90;;;;;;10322126;28;20053;-74
2021/03/17 02:34:47;;;;;;;30.80;22.08;;;5.50;99.90;;;;;;10322327;28;20057;-73
2021/03/17 02:40:10;;;;;;;27.45;20.02;;;5.40;99.90;;;;;;10322875;28;20058;-74
2021/03/17 02:45:25;;;;;;;22.23;17.63;;;5.40;99.90;;;;;;10321767;28;20101;-74
2021/03/17 02:50:27;;;;;;;18.40;15.38;;;5.40;99.90;;;;;;10322748;28;20046;-74
2021/03/17 02:55:36;;;;;;;21.20;15.90;;;5.40;99.90;;;;;;10322109;28;20483;-74
2021/03/17 03:00:38;;;;;;;21.83;16.48;;;5.30;99.90;;;;;;10322187;28;20100;-74
2021/03/17 03:05:41;;;;;;;19.73;14.60;;;5.40;99.90;;;;;;10330330;28;20050;-74
2021/03/17 03:10:44;;;;;;;23.73;17.08;;;5.30;99.90;;;;;;10329571;28;20057;-74
2021/03/17 03:15:46;;;;;;;29.73;17.80;;;5.40;99.90;;;;;;10328610;28;20403;-74
2021/03/17 03:20:52;;;;;;;11.90;8.75;;;5.30;99.90;;;;;;10328974;28;20046;-74
2021/03/17 03:25:54;;;;;;;14.30;10.57;;;5.10;99.90;;;;;;10332259;28;20463;-74
2021/03/17 03:30:56;;;;;;;14.75;11.32;;;5.10;99.90;;;;;;10330339;28;20104;-74
2021/03/17 03:35:57;;;;;;;15.52;12.10;;;5.10;99.90;;;;;;10329780;28;20054;-74
2021/03/17 03:41:00;;;;;;;15.95;12.35;;;5.00;99.90;;;;;;10330199;28;20054;-74
2021/03/17 03:46:02;;;;;;;35.65;24.15;;;4.90;99.90;;;;;;10329456;28;20043;-74
2021/03/17 03:51:05;;;;;;;21.60;16.10;;;4.90;99.90;;;;;;10302890;28;20058;-74
2021/03/17 03:56:11;;;;;;;23.73;14.82;;;5.00;99.90;;;;;;10316676;28;20116;-74
2021/03/17 04:01:23;;;;;;;31.92;17.15;;;5.10;99.90;;;;;;10329083;28;20053;-74
2021/03/17 04:06:34;;;;;;;24.80;15.25;;;5.10;99.90;;;;;;10323753;28;20123;-74
2021/03/17 04:11:38;;;;;;;22.88;15.40;;;5.00;99.90;;;;;;10322680;28;20104;-74
2021/03/17 04:16:42;;;;;;;26.27;17.25;;;5.00;99.90;;;;;;10329663;28;20410;-74
2021/03/17 04:21:45;;;;;;;25.83;16.80;;;5.00;99.90;;;;;;10329421;28;20054;-74
2021/03/17 04:26:48;;;;;;;27.08;18.13;;;4.90;99.90;;;;;;10329385;28;20050;-73
2021/03/17 04:31:51;;;;;;;37.47;20.23;;;4.70;99.90;;;;;;10329058;28;20502;-74
2021/03/17 04:36:54;;;;;;;33.85;20.48;;;4.60;99.90;;;;;;10328598;28;20054;-74
2021/03/17 04:41:56;;;;;;;27.52;19.13;;;4.50;99.90;;;;;;10328830;28;20057;-74
2021/03/17 04:46:59;;;;;;;24.75;18.33;;;4.60;99.90;;;;;;10327625;28;20082;-74
2021/03/17 04:52:01;;;;;;;25.38;18.15;;;4.70;99.90;;;;;;10328539;28;20124;-74
2021/03/17 04:57:03;;;;;;;27.48;19.02;;;4.80;99.90;;;;;;10327367;28;20055;-73
2021/03/17 05:02:05;;;;;;;36.00;22.38;;;4.90;99.90;;;;;;10327991;28;20085;-74
2021/03/17 05:07:10;;;;;;;45.05;24.70;;;5.00;99.90;;;;;;10323126;28;20482;-73
2021/03/17 05:12:13;;;;;;;35.17;22.17;;;4.90;99.90;;;;;;10325589;28;20053;-74
2021/03/17 05:17:19;;;;;;;31.38;21.05;;;4.90;99.90;;;;;;10324843;28;20539;-74
2021/03/17 05:22:21;;;;;;;33.15;21.27;;;4.80;99.90;;;;;;10324407;28;20487;-73
2021/03/17 05:27:27;;;;;;;32.90;22.17;;;4.70;99.90;;;;;;10325239;28;20109;-74
2021/03/17 05:32:29;;;;;;;42.42;29.13;;;4.70;99.90;;;;;;10325103;28;20487;-73
2021/03/17 05:37:31;;;;;;;38.95;25.08;;;4.90;99.90;;;;;;10325145;28;20445;-74
2021/03/17 05:42:33;;;;;;;38.08;26.67;;;4.90;99.90;;;;;;10324837;28;20056;-74
2021/03/17 05:47:36;;;;;;;46.80;30.75;;;5.10;99.90;;;;;;10324787;28;20128;-73
2021/03/17 05:52:40;;;;;;;32.15;23.67;;;5.10;99.90;;;;;;10324242;28;20050;-74
2021/03/17 05:57:43;;;;;;;33.63;23.38;;;5.10;99.90;;;;;;10324556;28;20450;-74
2021/03/17 06:02:48;;;;;;;32.85;23.33;;;5.10;99.90;;;;;;10324394;28;20522;-73
2021/03/17 06:08:13;;;;;;;30.23;22.33;;;5.10;99.90;;;;;;10322551;28;20042;-73
2021/03/17 06:13:16;;;;;;;33.83;22.90;;;5.10;99.90;;;;;;10323842;28;20046;-74
2021/03/17 06:18:45;;;;;;;35.97;23.08;;;5.20;99.90;;;;;;10323492;28;20395;-74
2021/03/17 06:23:48;;;;;;;37.97;24.13;;;5.00;99.90;;;;;;10323078;28;20058;-73
2021/03/17 06:28:50;;;;;;;34.42;23.98;;;5.10;99.90;;;;;;10323349;28;20050;-74
2021/03/17 06:33:53;;;;;;;31.67;21.73;;;5.20;99.90;;;;;;10322837;28;20050;-73
2021/03/17 06:39:09;;;;;;;28.10;22.02;;;5.10;99.90;;;;;;10322974;28;20522;-74
2021/03/17 06:44:11;;;;;;;33.80;22.20;;;5.10;99.90;;;;;;10322825;28;20054;-74
2021/03/17 06:49:43;;;;;;;33.78;23.75;;;5.20;99.90;;;;;;10323597;28;20085;-73
2021/03/17 06:55:16;;;;;;;32.10;21.80;;;5.20;99.90;;;;;;10322361;28;20077;-73
2021/03/17 07:00:32;;;;;;;30.98;21.27;;;5.20;99.90;;;;;;10323732;28;20050;-74
2021/03/17 07:05:38;;;;;;;29.90;21.35;;;5.40;99.90;;;;;;10323756;28;20058;-73
2021/03/17 07:10:45;;;;;;;34.90;23.35;;;5.50;99.90;;;;;;10322563;28;20414;-73
2021/03/17 07:15:53;;;;;;;32.05;22.23;;;5.70;99.90;;;;;;10322487;28;20050;-74
2021/03/17 07:21:04;;;;;;;31.65;22.08;;;5.70;99.90;;;;;;10322932;28;20061;-73
2021/03/17 07:26:10;;;;;;;32.67;21.92;;;5.60;99.90;;;;;;10284676;28;20466;-74
2021/03/17 07:31:29;;;;;;;31.38;22.08;;;5.70;99.90;;;;;;10294092;28;20055;-74
2021/03/17 07:36:54;;;;;;;27.77;20.27;;;5.90;99.90;;;;;;10323006;28;20399;-74
2021/03/17 07:41:58;;;;;;;29.05;20.77;;;5.80;99.90;;;;;;10322011;28;20061;-73
2021/03/17 07:47:01;;;;;;;23.30;17.88;;;5.90;99.90;;;;;;10328982;28;20376;-73
2021/03/17 07:52:33;;;;;;;17.80;13.90;;;6.20;99.90;;;;;;10329905;28;20057;-73
2021/03/17 07:57:35;;;;;;;18.17;14.07;;;6.30;99.90;;;;;;10329786;28;20133;-74
2021/03/17 08:02:37;;;;;;;15.45;12.57;;;6.30;99.90;;;;;;10329502;28;20573;-73
2021/03/17 08:07:39;;;;;;;13.00;10.23;;;6.30;99.90;;;;;;10328995;28;20038;-73
2021/03/17 08:12:45;;;;;;;15.10;10.75;;;6.30;99.90;;;;;;10329149;28;20514;-73
2021/03/17 08:17:46;;;;;;;11.23;9.40;;;6.10;99.90;;;;;;10329212;28;20089;-74
2021/03/17 08:22:51;;;;;;;11.50;9.60;;;6.10;99.90;;;;;;10328364;28;20061;-73
2021/03/17 08:28:20;;;;;;;11.75;9.75;;;6.30;99.90;;;;;;10329387;28;20096;-73
2021/03/17 08:33:35;;;;;;;11.60;8.73;;;6.50;99.90;;;;;;10328465;28;20447;-73
2021/03/17 08:39:03;;;;;;;11.55;8.13;;;6.60;99.90;;;;;;10318386;28;20058;-73
2021/03/17 08:44:26;;;;;;;8.93;6.80;;;6.70;99.90;;;;;;10292807;28;20452;-74
2021/03/17 08:49:30;;;;;;;13.20;7.40;;;6.60;99.90;;;;;;10328305;28;20050;-73
2021/03/17 08:54:34;;;;;;;8.65;6.75;;;6.50;99.90;;;;;;10326822;28;20062;-73
2021/03/17 08:59:50;;;;;;;7.95;6.72;;;6.10;99.90;;;;;;10327108;28;20943;-73
2021/03/17 09:04:52;;;;;;;8.60;6.13;;;6.60;99.90;;;;;;10327452;28;20057;-73
2021/03/17 09:10:20;;;;;;;6.63;5.50;;;6.80;99.90;;;;;;10327178;28;20093;-73
2021/03/17 09:15:24;;;;;;;6.53;5.10;;;7.30;99.90;;;;;;10327393;28;20446;-73
2021/03/17 09:20:30;;;;;;;8.55;6.13;;;7.60;99.90;;;;;;10326536;28;20487;-74
2021/03/17 09:25:31;;;;;;;9.38;6.90;;;8.30;99.90;;;;;;10327116;28;20066;-73
2021/03/17 09:30:40;;;;;;;6.32;5.28;;;8.30;99.90;;;;;;10313195;28;20055;-74
2021/03/17 09:35:47;;;;;;;5.00;4.03;;;8.60;99.90;;;;;;10325461;28;20046;-74
2021/03/17 09:41:00;;;;;;;5.80;4.60;;;8.50;99.90;;;;;;10324732;28;20050;-74
2021/03/17 09:46:31;;;;;;;6.32;4.85;;;8.30;99.90;;;;;;10324919;28;20038;-73
2021/03/17 09:51:38;;;;;;;;;;;8.70;99.90;;;;;;10325202;28;20065;-74
2021/03/17 09:56:45;;;;;;;4.22;3.30;;;7.70;99.90;;;;;;10322996;28;20259;-74
2021/03/17 10:02:05;;;;;;;4.40;3.65;;;7.20;99.90;;;;;;10324592;28;20495;-73
2021/03/17 10:07:09;;;;;;;5.28;4.05;;;7.40;99.90;;;;;;10323829;28;20054;-74
2021/03/17 10:12:16;;;;;;;4.95;3.83;;;7.90;99.90;;;;;;10316899;28;20050;-74
2021/03/17 10:17:19;;;;;;;5.05;3.50;;;7.80;99.90;;;;;;10323856;28;20046;-74
2021/03/17 10:22:25;;;;;;;4.50;3.17;;;7.80;99.90;;;;;;10323042;28;20109;-74
2021/03/17 10:27:33;;;;;;;5.90;4.25;;;7.70;99.90;;;;;;10319146;28;20058;-74
2021/03/17 10:32:37;;;;;;;6.07;4.10;;;8.10;99.90;;;;;;10298948;28;20430;-73
2021/03/17 10:37:41;;;;;;;6.72;3.83;;;8.00;99.90;;;;;;10316892;28;20117;-74
2021/03/17 10:42:45;;;;;;;4.93;3.83;;;7.40;99.90;;;;;;10323754;28;20055;-65
2021/03/17 10:47:48;;;;;;;5.57;3.30;;;7.10;99.90;;;;;;10317900;28;20054;-65
2021/03/17 10:52:50;;;;;;;3.00;1.50;;;7.40;99.90;;;;;;10318734;28;20054;-65
2021/03/17 10:58:07;;;;;;;2.58;1.27;;;7.90;99.90;;;;;;10324870;28;20099;-66
2021/03/17 11:03:40;;;;;;;1.77;1.00;;;7.80;99.90;;;;;;10333652;28;20498;-66
2021/03/17 11:09:02;;;;;;;2.72;1.20;;;7.80;99.90;;;;;;10318516;28;20407;-66
2021/03/17 11:14:04;;;;;;;2.60;1.10;;;8.00;99.90;;;;;;10315256;28;20054;-66
2021/03/17 11:19:11;;;;;;;2.83;1.02;;;7.80;99.90;;;;;;10321935;28;20710;-66
2021/03/17 11:24:18;;;;;;;0.95;0.85;;;8.50;99.90;;;;;;10328534;28;20054;-66
2021/03/17 11:29:28;;;;;;;1.85;1.10;;;9.00;94.80;;;;;;10326672;28;20041;-66
2021/03/17 11:34:29;;;;;;;2.53;1.27;;;8.60;89.90;;;;;;10328544;28;20129;-66
2021/03/17 11:39:31;;;;;;;2.45;1.20;;;8.50;91.90;;;;;;10338289;28;20073;-66
2021/03/17 11:44:33;;;;;;;2.17;1.10;;;8.40;92.40;;;;;;10329667;28;20046;-66
2021/03/17 11:49:34;;;;;;;3.00;1.00;;;8.50;91.90;;;;;;10329824;28;20050;-66
2021/03/17 11:54:37;;;;;;;2.38;0.90;;;8.40;90.00;;;;;;10327627;28;20060;-66
2021/03/17 11:59:38;;;;;;;2.08;1.05;;;8.10;84.80;;;;;;10329565;28;20736;-66
2021/03/17 12:04:40;;;;;;;1.65;1.00;;;8.10;79.40;;;;;;10328887;28;20454;-66
2021/03/17 12:09:42;;;;;;;2.55;1.30;;;8.30;76.10;;;;;;10328560;28;20042;-66
2021/03/17 12:14:44;;;;;;;3.67;1.10;;;8.30;80.20;;;;;;10328312;28;20546;-66
2021/03/17 12:19:45;;;;;;;1.65;1.00;;;8.30;82.20;;;;;;10335774;28;20080;-66
2021/03/17 12:24:48;;;;;;;2.97;1.20;;;8.00;84.00;;;;;;10327646;28;20425;-66
2021/03/17 12:29:50;;;;;;;3.30;1.25;;;8.10;86.30;;;;;;10327348;28;20129;-66
2021/03/17 12:34:52;;;;;;;3.58;1.25;;;7.80;86.50;;;;;;10345493;28;20053;-66
2021/03/17 12:39:54;;;;;;;3.17;1.40;;;7.90;87.90;;;;;;10326706;28;20047;-65
2021/03/17 12:44:55;;;;;;;3.67;1.60;;;7.90;81.80;;;;;;10308228;28;20046;-66
2021/03/17 12:49:57;;;;;;;3.08;1.33;;;8.20;80.20;;;;;;10323356;28;20050;-66
2021/03/17 12:54:59;;;;;;;2.80;1.40;;;8.30;76.70;;;;;;10323938;28;20046;-65
2021/03/17 13:00:05;;;;;;;3.80;1.20;;;8.80;67.50;;;;;;10313793;28;20051;-66
2021/03/17 13:05:10;;;;;;;1.70;1.20;;;9.00;69.00;;;;;;10320496;28;20502;-66
2021/03/17 13:10:17;;;;;;;2.55;1.20;;;9.30;62.00;;;;;;10324365;28;20498;-66
2021/03/17 13:15:20;;;;;;;2.97;1.48;;;9.40;60.40;;;;;;10322928;28;20046;-66
2021/03/17 13:20:28;;;;;;;2.33;1.30;;;9.20;58.30;;;;;;10323464;28;20066;-66
2021/03/17 13:25:31;;;;;;;3.58;1.30;;;9.10;57.60;;;;;;10321535;28;20074;-66
2021/03/17 13:30:34;;;;;;;2.50;1.35;;;9.10;57.20;;;;;;10323378;28;20054;-66
2021/03/17 13:35:37;;;;;;;4.57;1.30;;;9.10;57.50;;;;;;10313843;28;20120;-66
2021/03/17 13:40:39;;;;;;;3.80;1.67;;;8.90;56.70;;;;;;10324001;28;20089;-66
2021/03/17 13:45:42;;;;;;;2.70;1.27;;;8.70;55.20;;;;;;10323884;28;20047;-66
2021/03/17 13:50:48;;;;;;;3.67;1.40;;;8.80;58.10;;;;;;10323953;28;20380;-66
2021/03/17 13:55:50;;;;;;;4.60;1.50;;;8.90;56.60;;;;;;10324444;28;20061;-66
2021/03/17 14:00:51;;;;;;;5.10;1.63;;;9.10;55.80;;;;;;10308149;28;20050;-66
2021/03/17 14:05:53;;;;;;;4.40;2.00;;;8.40;61.70;;;;;;10303011;28;20109;-66
2021/03/17 14:10:54;;;;;;;4.68;1.90;;;7.60;63.30;;;;;;10324173;28;20410;-66
2021/03/17 14:15:56;;;;;;;3.28;1.70;;;7.40;64.10;;;;;;10323281;28;20058;-66
2021/03/17 14:20:58;;;;;;;7.70;2.20;;;7.60;66.30;;;;;;10323754;28;20534;-66
2021/03/17 14:26:00;;;;;;;4.72;1.85;;;8.00;63.20;;;;;;10322375;28;20058;-67
2021/03/17 14:31:02;;;;;;;4.65;2.00;;;8.00;63.70;;;;;;10318886;28;20383;-66
2021/03/17 14:36:04;;;;;;;3.58;1.80;;;8.10;63.30;;;;;;10293929;28;20057;-66
2021/03/17 14:41:07;;;;;;;5.72;1.80;;;8.10;61.00;;;;;;10304439;28;20138;-66
2021/03/17 14:46:08;;;;;;;3.42;1.65;;;8.20;61.60;;;;;;10320699;28;20050;-66
2021/03/17 14:51:10;;;;;;;8.85;1.90;;;8.30;62.10;;;;;;10322525;28;20057;-66
2021/03/17 14:56:11;;;;;;;4.72;1.95;;;8.40;60.10;;;;;;10321181;28;20089;-66
2021/03/17 15:01:13;;;;;;;4.75;1.60;;;8.90;59.20;;;;;;10320742;28;20046;-66
2021/03/17 15:06:14;;;;;;;4.70;1.27;;;9.10;58.10;;;;;;10321643;28;20089;-66
2021/03/17 15:11:16;;;;;;;3.72;1.40;;;8.10;56.80;;;;;;10322666;28;20086;-66
2021/03/17 15:16:18;;;;;;;5.47;1.40;;;7.20;59.20;;;;;;10321013;28;20105;-66
2021/03/17 15:21:19;;;;;;;3.85;1.40;;;7.00;58.40;;;;;;10321802;28;20137;-66
2021/03/17 15:26:23;;;;;;;4.55;1.58;;;7.00;60.00;;;;;;10321893;28;20054;-66
2021/03/17 15:31:25;;;;;;;5.18;1.58;;;7.00;60.80;;;;;;10321499;28;20058;-67
2021/03/17 15:36:27;;;;;;;6.65;1.60;;;7.40;60.80;;;;;;10310298;28;20053;-66
2021/03/17 15:41:29;;;;;;;4.50;1.75;;;7.30;61.30;;;;;;10320375;28;20074;-66
2021/03/17 15:46:30;;;;;;;4.60;1.50;;;7.10;61.10;;;;;;10320716;28;20042;-66
2021/03/17 15:51:32;;;;;;;5.90;1.50;;;6.80;58.70;;;;;;10321660;28;20105;-66
2021/03/17 15:56:33;;;;;;;6.65;1.40;;;6.70;57.10;;;;;;10321079;28;20116;-66
2021/03/17 16:01:35;;;;;;;5.38;1.50;;;6.40;58.40;;;;;;10320802;28;20105;-66
2021/03/17 16:06:37;;;;;;;3.70;1.20;;;6.20;58.20;;;;;;10325265;28;20218;-66
2021/03/17 16:11:39;;;;;;;4.93;1.45;;;6.00;59.30;;;;;;10319179;28;20046;-66
2021/03/17 16:16:41;;;;;;;2.97;1.38;;;6.20;59.60;;;;;;10328436;28;20050;-66
2021/03/17 16:21:43;;;;;;;3.72;1.40;;;6.20;58.40;;;;;;10327586;28;20133;-66
2021/03/17 16:26:45;;;;;;;3.30;1.20;;;6.10;59.60;;;;;;10326901;28;20519;-66
2021/03/17 16:31:46;;;;;;;5.68;1.60;;;6.10;60.30;;;;;;10327524;28;20418;-66
2021/03/17 16:36:48;;;;;;;3.42;1.40;;;6.10;60.70;;;;;;10320684;28;20055;-66
2021/03/17 16:41:49;;;;;;;4.18;1.30;;;6.10;61.90;;;;;;10326431;28;20046;-66
2021/03/17 16:46:51;;;;;;;4.53;1.33;;;6.10;61.80;;;;;;10326489;28;20054;-66
2021/03/17 16:51:53;;;;;;;3.92;1.48;;;6.00;62.30;;;;;;10326663;28;20062;-66
2021/03/17 16:56:55;;;;;;;4.55;1.55;;;6.00;63.70;;;;;;10325864;28;20487;-66
2021/03/17 17:02:00;;;;;;;5.63;1.52;;;6.00;64.20;;;;;;10326510;28;20058;-66
2021/03/17 17:07:02;;;;;;;4.57;1.60;;;6.10;65.50;;;;;;10315827;28;20047;-66
2021/03/17 17:12:04;;;;;;;5.00;1.77;;;6.10;64.20;;;;;;10322688;28;20415;-66
2021/03/17 17:17:05;;;;;;;3.38;1.60;;;6.00;64.70;;;;;;10321271;28;20084;-66
2021/03/17 17:22:07;;;;;;;5.57;1.70;;;5.90;64.70;;;;;;10332151;28;20046;-66
2021/03/17 17:27:09;;;;;;;5.68;1.60;;;5.90;65.70;;;;;;10319619;28;20054;-66
2021/03/17 17:32:11;;;;;;;4.75;1.40;;;5.80;66.70;;;;;;10315172;28;20054;-66
2021/03/17 17:37:13;;;;;;;5.75;1.90;;;5.80;66.90;;;;;;10308129;28;20046;-66
2021/03/17 17:42:14;;;;;;;7.40;1.70;;;5.80;67.90;;;;;;10284234;28;20055;-66
2021/03/17 17:47:16;;;;;;;7.38;1.65;;;5.80;67.90;;;;;;10309978;28;20522;-66
2021/03/17 17:52:17;;;;;;;5.32;1.55;;;5.90;69.10;;;;;;10318905;28;20046;-66
2021/03/17 17:57:19;;;;;;;3.05;1.40;;;5.90;69.00;;;;;;10318208;28;20050;-66
2021/03/17 18:02:21;;;;;;;5.70;1.95;;;5.90;69.50;;;;;;10316836;28;20491;-66
2021/03/17 18:07:22;;;;;;;7.05;2.00;;;5.90;71.10;;;;;;10321044;28;20049;-66
2021/03/17 18:12:24;;;;;;;5.45;2.00;;;6.10;74.20;;;;;;10322262;28;20077;-66
2021/03/17 18:17:27;;;;;;;5.05;2.35;;;6.20;73.10;;;;;;10321548;28;20054;-66
2021/03/17 18:22:28;;;;;;;3.90;1.60;;;6.00;72.20;;;;;;10318462;28;20050;-66
2021/03/17 18:27:30;;;;;;;5.25;2.25;;;6.00;72.90;;;;;;10313672;28;20565;-66
2021/03/17 18:32:32;;;;;;;8.88;2.00;;;5.90;73.30;;;;;;10321384;28;20057;-66
2021/03/17 18:37:35;;;;;;;7.28;1.75;;;5.90;75.80;;;;;;10322294;28;20058;-66
2021/03/17 18:42:36;;;;;;;6.43;1.90;;;5.90;76.90;;;;;;10302864;28;20399;-66
2021/03/17 18:47:39;;;;;;;7.88;2.15;;;6.00;77.30;;;;;;10321205;28;20050;-66
2021/03/17 18:52:42;;;;;;;4.53;2.00;;;6.10;77.20;;;;;;10319471;28;20089;-66
2021/03/17 18:57:46;;;;;;;7.43;2.13;;;6.10;80.50;;;;;;10320608;28;20046;-66
2021/03/17 19:02:48;;;;;;;5.88;2.30;;;6.10;80.90;;;;;;10320417;28;20410;-65
2021/03/17 19:07:50;;;;;;;7.90;2.60;;;6.10;82.90;;;;;;10319537;28;20832;-76
2021/03/17 19:12:53;;;;;;;8.77;2.15;;;6.00;79.40;;;;;;10320886;28;20053;-76
2021/03/17 19:17:56;;;;;;;6.53;2.22;;;5.90;78.80;;;;;;10320675;28;20730;-76
2021/03/17 19:22:58;;;;;;;7.32;2.28;;;6.00;79.80;;;;;;10320158;28;20046;-77
2021/03/17 19:28:00;;;;;;;9.73;2.50;;;6.00;85.20;;;;;;10320263;28;20051;-76
2021/03/17 19:33:20;;;;;;;8.60;2.58;;;6.00;84.20;;;;;;10320188;28;20047;-77
2021/03/17 19:38:22;;;;;;;6.10;2.47;;;6.10;86.50;;;;;;10305625;28;20100;-76
2021/03/17 19:43:24;;;;;;;11.73;6.55;;;6.10;87.70;;;;;;10312686;28;20061;-76
2021/03/17 19:48:26;;;;;;;14.00;6.20;;;6.10;89.80;;;;;;10328159;28;20433;-75
2021/03/17 19:53:28;;;;;;;14.35;7.30;;;5.90;91.10;;;;;;10326791;28;20511;-76
2021/03/17 19:58:30;;;;;;;9.43;4.50;;;5.70;93.10;;;;;;10327777;28;20505;-76
2021/03/17 20:03:32;;;;;;;9.93;3.40;;;5.50;95.60;;;;;;10310322;28;20154;-76
2021/03/17 20:08:34;;;;;;;13.32;5.50;;;5.20;97.40;;;;;;10326212;28;20050;-76
2021/03/17 20:13:35;;;;;;;15.85;7.20;;;5.10;99.90;;;;;;10326517;28;20141;-76
2021/03/17 20:18:38;;;;;;;16.17;8.05;;;5.20;99.90;;;;;;10326977;28;20486;-75
2021/03/17 20:23:58;;;;;;;22.52;11.93;;;5.30;99.90;;;;;;10326403;28;20128;-76
2021/03/17 20:28:59;;;;;;;9.68;5.03;;;5.30;99.90;;;;;;10326658;28;20458;-75
2021/03/17 20:34:02;;;;;;;7.55;4.10;;;5.10;99.90;;;;;;10327067;28;20050;-76
2021/03/17 20:39:05;;;;;;;11.73;3.80;;;4.90;99.90;;;;;;10324689;28;20592;-75
2021/03/17 20:44:08;;;;;;;10.45;4.40;;;4.90;99.90;;;;;;10326482;28;20057;-75
2021/03/17 20:49:11;;;;;;;13.50;5.43;;;5.10;99.90;;;;;;10326302;28;20050;-75
2021/03/17 20:54:14;;;;;;;15.73;5.05;;;5.20;99.90;;;;;;10308926;28;20058;-75
2021/03/17 20:59:17;;;;;;;10.88;4.18;;;5.10;99.90;;;;;;10299941;28;20058;-76
2021/03/17 21:04:19;;;;;;;10.70;6.18;;;5.10;99.90;;;;;;10324147;28;20842;-75
2021/03/17 21:09:25;;;;;;;10.85;5.85;;;5.00;99.90;;;;;;10326395;28;20113;-76
2021/03/17 21:14:29;;;;;;;15.68;6.95;;;5.10;99.90;;;;;;10324281;28;20517;-75
2021/03/17 21:19:31;;;;;;;13.88;5.63;;;5.10;99.90;;;;;;10325362;28;20054;-76
2021/03/17 21:24:34;;;;;;;8.82;3.63;;;5.20;99.90;;;;;;10324700;28;20069;-75
2021/03/17 21:29:54;;;;;;;;;;;5.10;99.90;;;;;;10324815;28;20034;-76
2021/03/17 21:34:56;;;;;;;9.52;3.13;;;5.20;99.90;;;;;;10323937;28;20294;-76
2021/03/17 21:39:59;;;;;;;8.60;2.90;;;5.20;99.90;;;;;;10323948;28;20081;-75
2021/03/17 21:45:01;;;;;;;10.25;5.40;;;5.20;99.90;;;;;;10322186;28;20125;-75
2021/03/17 21:50:05;;;;;;;8.68;4.40;;;5.00;99.90;;;;;;10323663;28;20050;-75
2021/03/17 21:55:09;;;;;;;7.75;3.70;;;4.90;99.90;;;;;;10323963;28;20137;-75
2021/03/17 22:00:16;;;;;;;7.18;3.22;;;4.70;99.90;;;;;;10324213;28;20053;-75
2021/03/17 22:05:20;;;;;;;6.80;3.15;;;4.60;99.90;;;;;;10322787;28;20129;-75
2021/03/17 22:10:22;;;;;;;5.90;3.28;;;4.50;99.90;;;;;;10323072;28;20046;-75
2021/03/17 22:15:23;;;;;;;7.22;2.83;;;4.50;99.90;;;;;;10322531;28;20055;-75
2021/03/17 22:20:32;;;;;;;7.18;3.35;;;4.20;99.90;;;;;;10323139;28;20046;-76
2021/03/17 22:25:34;;;;;;;9.50;3.72;;;4.20;99.90;;;;;;10322238;28;20074;-76
2021/03/17 22:30:37;;;;;;;8.85;5.07;;;4.10;99.90;;;;;;10322550;28;20617;-77
2021/03/17 22:35:39;;;;;;;9.40;5.20;;;4.00;99.90;;;;;;10321185;28;20054;-76
2021/03/17 22:40:40;;;;;;;14.25;5.88;;;3.90;99.90;;;;;;10322602;28;20058;-76
2021/03/17 22:45:42;;;;;;;13.02;5.85;;;3.70;99.90;;;;;;10321449;28;20065;-76
2021/03/17 22:50:48;;;;;;;11.90;6.22;;;3.60;99.90;;;;;;10317179;28;20047;-76
2021/03/17 22:55:50;;;;;;;11.05;5.82;;;3.50;99.90;;;;;;10320633;28;20054;-76
2021/03/17 23:00:57;;;;;;;10.75;6.10;;;3.30;99.90;;;;;;10321724;28;20096;-76
2021/03/17 23:06:00;;;;;;;14.20;6.13;;;3.20;99.90;;;;;;10321633;28;20414;-75
2021/03/17 23:11:30;;;;;;;14.55;6.28;;;3.10;99.90;;;;;;10322017;28;20050;-76
2021/03/17 23:16:32;;;;;;;12.23;6.40;;;2.80;99.90;;;;;;10320600;28;20054;-76
2021/03/17 23:21:34;;;;;;;10.65;6.20;;;2.70;99.90;;;;;;10321705;28;20049;-76
2021/03/17 23:26:39;;;;;;;16.42;6.72;;;2.70;99.90;;;;;;10320496;28;20411;-76
2021/03/17 23:31:41;;;;;;;16.15;7.45;;;2.70;99.90;;;;;;10319819;28;20054;-76
2021/03/17 23:36:44;;;;;;;17.27;7.22;;;2.50;99.90;;;;;;10319318;28;20050;-76
2021/03/17 23:41:46;;;;;;;10.05;6.45;;;2.40;99.90;;;;;;10320765;28;20112;-76
2021/03/17 23:46:48;;;;;;;13.80;7.25;;;2.40;99.90;;;;;;10319969;28;20409;-76
2021/03/17 23:51:50;;;;;;;10.35;5.30;;;2.30;99.90;;;;;;10318995;28;20561;-76
2021/03/17 23:56:52;;;;;;;9.27;4.80;;;2.20;99.90;;;;;;10320220;28;20050;-75
